Strona główna
METAR-TAF:

METAR-TAF

Lotnisko :

Port lotniczy Svalbard

Longyearbyen, Norwegia

Szerokość geograficzna: 78-15N, Długość geograficzna: 015-28E, wysokość: 2 m

Aktualna obserwacja pogody

Raport powstał 35 minut temu, godzina 14:20 UTC
Wiatr 17 kt od zachodnio-południowy zachód
Temperatura 13°C
Wilgotność 58%
Ciśnienie 1017 hPa
Widzialność 10 km lub więcej
Brak chmur poniżej 1500 m i brak chmur cumulonimbus

METAR: ENSB 071420Z 25017KT CAVOK 13/05 Q1017 RMK WIND 1400FT 29007KT

czas: 16:55 (14:55 UTC)

Prognoza

Prognoza ważna od 07 godzina 13 UTC do 08 godzina 12 UTC
Wiatr 15 kt od zachodnio-południowy zachód
Widzialność 10 km lub więcej
Mało chmury na wysokości 1500 ft
Prawdopodobieństwo 30%
od 08 godzina 02 UTC do 08 godzina 12 UTC
Widzialność: 0500 m
na wysokości 200 ft
mgła
Stopniowe zmiany
od 07 godzina 21 UTC do 07 godzina 24 UTC
Wiatr 5 kt z kierunków zmiennych

TAF: ENSB 0713/0812 25015KT 9999 FEW015 PROB30 0802/0812 0500 FG VV002 BECMG 0721/0724 VRB05KT

Obserwacja i prognoza pogody dla ponad 4000 lotnisk (raport METAR i TAF).

Dostępne stacje oznaczono żółtymi i czerwonymi punktami na mapie.

Najedź kursorem aby zobaczyć nazwę stacji.

Kliknij aby zobaczyć obserwacje i prognozy pogody.

Aby zmienić mapę: kliknij na zielony przycisk z czarnym krzyżykiem, aby powiększyć; na zielony przycisk z myślnikiem, aby pomniejszyć; na zielone strzałki, aby przejść do map sąsiednich.


METAR-TAF: